Main page
METAR-TAF:

METAR-TAF

Airports :

Ponta Pelada Airport

Manaus, Amazonas, Brazil

latitude: 03-09S, longitude: 059-59W, elevation: 84 m

Current weather observation

The report was made 55 minutes ago, at 00:00 UTC
Wind 2 kt from the North/Northeast
Temperature 27°C
Humidity 84%
Pressure 1009 hPa
Visibility 10 km or more
Few clouds at a height of 2000 ft
Broken clouds at a height of 9000 ft

METAR: SBMN 180000Z 02002KT 9999 FEW020 BKN090 27/24 Q1009

Time: 20:55 (00:55 UTC)

Forecast

The report was made 2 hours and 55 minutes ago, at 22:00 UTC
Forecast valid from 18 at 00 UTC to 18 at 12 UTC
Wind 5 kt from the East
Visibility 10 km or more
no clouds below 1500 m and no cumulonimbus
Becoming
from 18 at 06 UTC to 18 at 08 UTC
Visibility: 8000 m
Scattered clouds at a height of 1000 ft
rain showers

TAF: SBMN 172200Z 1800/1812 08005KT CAVOK TX29/1800Z TN26/1810Z BECMG 1806/1808 8000 SHRA SCT010 RMK PAY

Weather observations and forecasts of more than 4000 airports (METAR and TAF reports).

The available stations are represented by yellow and red dots on the map.

Hover mouse over dot to see the name of the station.

Then click to see weather observations and forecasts.

To change the map : click on the green buttons with a black cross to zoom in, on the green button with a dash to zoom out, or on the green arrows for adjacent maps.


METAR-TAF: